Etusivu
METAR-TAF:

METAR-TAF

Lentoasemat :

Šiauliai, Liettua

Leveyspiiri: 55-53-38N, Pituuspiiri: 023-23-42E, korkeus merenpinnasta: 135 m

Tämänhetkinen sää

Tämä raportti tehtiin 26 minuuttia sitten, kello 15.50 UTC
Tuuli 14 kn lännestä/lounaasta
Lämpötila 6°C
Kosteus 100%
Ilmanpaine 1021 hPa
Näkyvyys 10 km tai enemmän
Pilvistä 500 ft:n korkeudessa

METAR: EYSA 211550Z 24014KT 9999 OVC005 06/06 Q1021 R32R/19//95 YLO1 NOSIG

Aika: 18:16 (16:16 UTC)

Sääennuste

Tämä raportti tehtiin 2 tuntia ja 16 minuuttia sitten, kello 14.00 UTC
Ennuste voimassa 21. päivästä klo 15 UTC - 21. päivään klo 24 UTC
Tuuli 16 kn lännestä/lounaasta
Näkyvyys: 5000 m
Hajonneita pilviä 500 ft:n korkeudessa
utua
Ajoittain
21. päivästä klo 15 UTC - 21. päivään klo 24 UTC
Näkyvyys: 0500 m
Pilvistä 200 ft:n korkeudessa
tihkusadetta, sumua

TAF: EYSA 211400Z 2115/2124 24016KT 5000 BR BKN005 TEMPO 2115/2124 0500 DZ FG OVC002

Säähavainnot ja -ennusteet yli 4000 lentoasemalta (METAR- ja TAF-raportit).

Käytössä olevat sääasemat on merkitty karttaan keltaisilla ja punaisilla pisteillä.

Aseta hiiri pisteen päälle nähdäksesi sääaseman nimen.

Klikkaa sitten nähdäksesi säähavainnot ja -ennusteet.

Kartan vaihtaminen: klikkaa mustalla rastilla varustettuja vihreitä pisteitä, niin voit zoomata sisään; viivalla varustettua vihreää pistettä, niin voit zoomata ulos tai vihreitä nuolia, niin pääset viereisille kartoille.


METAR-TAF: